METAR Data
IDs: Format: Raw Decoded Include TAF

Data at: 1632 UTC 18 Feb 2019

METAR for:KEST (Estherville Muni, IA, US)
Text:KEST 181552Z AUTO 32009KT 10SM CLR M16/M19 A3042 RMK AO2 SLP331 T11611189
Temperature:-16.1°C ( 3°F)
Dewpoint:-18.9°C ( -2°F) [RH = 79%]
Pressure (altimeter):30.42 inches Hg (1030.2 mb) [Sea level pressure: 1033.1 mb]
Winds:from the NW (320 degrees) at 10 MPH (9 knots; 4.6 m/s)
Visibility:10 or more sm (16+ km)
Ceiling:at least 12,000 feet AGL
Clouds:sky clear below 12,000 feet AGL
QC Flag:automated observation with no human augmentation